Time;durP1;ratioP1;P1;durP2;ratioP2;P2;SDS_P1;SDS_P2;PMS_P1;PMS_P2;Temp;Humidity;BMP_temperature;BMP_pressure;BME280_temperature;BME280_humidity;BME280_pressure;Samples;Min_cycle;Max_cycle;Signal;HPM_P1;HPM_P2
2024/04/12 00:01:03;;;;;;;16.50;11.77;;;5.10;99.90;;;;;;5355966;26;20004;-76
2024/04/12 00:03:29;;;;;;;19.75;11.73;;;5.10;99.90;;;;;;5380154;26;20040;-77
2024/04/12 00:05:57;;;;;;;17.13;11.18;;;5.10;99.90;;;;;;5374990;26;20013;-77
2024/04/12 00:08:24;;;;;;;15.18;11.32;;;5.00;99.90;;;;;;5366245;26;20051;-77
2024/04/12 00:10:51;;;;;;;22.08;11.50;;;4.90;99.90;;;;;;5368862;26;20347;-78
2024/04/12 00:13:18;;;;;;;14.23;11.02;;;4.90;99.90;;;;;;5380207;26;20055;-77
2024/04/12 00:15:43;;;;;;;17.05;12.18;;;4.80;99.90;;;;;;5380404;26;20097;-77
2024/04/12 00:18:11;;;;;;;15.13;11.23;;;4.80;99.90;;;;;;5381764;26;20004;-76
2024/04/12 00:20:37;;;;;;;13.38;10.63;;;4.80;99.90;;;;;;5378202;26;20000;-78
2024/04/12 00:23:03;;;;;;;19.25;12.65;;;4.90;99.90;;;;;;5348286;26;20079;-78
2024/04/12 00:25:29;;;;;;;18.88;11.45;;;4.80;99.90;;;;;;5382628;26;20405;-77
2024/04/12 00:27:55;;;;;;;17.98;12.05;;;4.80;99.90;;;;;;5379961;26;20016;-76
2024/04/12 00:30:41;;;;;;;14.45;11.73;;;4.80;99.90;;;;;;5381953;26;20490;-77
2024/04/12 00:33:10;;;;;;;13.75;11.45;;;4.80;99.90;;;;;;5379486;26;20004;-77
2024/04/12 00:35:40;;;;;;;21.35;11.38;;;4.80;99.90;;;;;;5382185;26;20036;-77
2024/04/12 00:38:09;;;;;;;17.02;10.77;;;4.80;99.90;;;;;;5379535;26;20069;-77
2024/04/12 00:40:48;;;;;;;14.40;11.05;;;4.80;99.90;;;;;;5366634;26;20083;-78
2024/04/12 00:43:17;;;;;;;15.07;11.15;;;4.80;99.90;;;;;;5380350;26;20073;-77
2024/04/12 00:45:54;;;;;;;17.15;11.55;;;4.80;99.90;;;;;;5375885;26;20004;-76
2024/04/12 00:48:21;;;;;;;14.60;10.85;;;4.70;99.90;;;;;;5420056;26;20526;-76
2024/04/12 00:50:50;;;;;;;17.70;11.63;;;4.60;99.90;;;;;;5380642;26;20329;-77
2024/04/12 00:53:28;;;;;;;16.80;11.63;;;4.60;99.90;;;;;;5379477;26;20340;-77
2024/04/12 00:56:03;;;;;;;15.15;11.05;;;4.60;99.90;;;;;;5380727;26;20004;-77
2024/04/12 00:58:32;;;;;;;13.57;11.25;;;4.60;99.90;;;;;;5374347;26;20005;-77
2024/04/12 01:01:10;;;;;;;16.85;11.82;;;4.50;99.90;;;;;;5356821;26;20001;-77
2024/04/12 01:03:46;;;;;;;18.10;12.50;;;4.60;99.90;;;;;;5380875;26;20032;-77
2024/04/12 01:06:16;;;;;;;17.08;11.50;;;4.60;99.90;;;;;;5381574;26;20085;-76
2024/04/12 01:08:45;;;;;;;13.63;11.13;;;4.50;99.90;;;;;;5374104;26;20005;-77
2024/04/12 01:11:15;;;;;;;16.63;12.73;;;4.50;99.90;;;;;;5352168;26;20008;-76
2024/04/12 01:13:41;;;;;;;16.45;11.00;;;4.50;99.90;;;;;;5381803;26;20006;-77
2024/04/12 01:16:07;;;;;;;15.98;11.52;;;4.50;99.90;;;;;;5379164;26;20004;-77
2024/04/12 01:18:34;;;;;;;16.92;11.25;;;4.40;99.90;;;;;;5379376;26;20026;-76
2024/04/12 01:21:00;;;;;;;14.70;10.68;;;4.40;99.90;;;;;;5379423;26;20016;-77
2024/04/12 01:23:27;;;;;;;13.50;11.05;;;4.50;99.90;;;;;;5373269;26;20013;-77
2024/04/12 01:25:56;;;;;;;12.38;10.10;;;4.50;99.90;;;;;;5359134;26;20005;-77
2024/04/12 01:28:22;;;;;;;15.50;10.50;;;4.50;99.90;;;;;;5344347;26;20005;-76
2024/04/12 01:30:48;;;;;;;17.55;10.90;;;4.50;99.90;;;;;;5365111;26;20012;-76
2024/04/12 01:33:14;;;;;;;15.15;11.05;;;4.50;99.90;;;;;;5378664;26;20085;-77
2024/04/12 01:35:44;;;;;;;15.65;11.05;;;4.40;99.90;;;;;;5381163;26;20004;-77
2024/04/12 01:38:16;;;;;;;14.15;10.30;;;4.40;99.90;;;;;;5377878;26;20446;-77
2024/04/12 01:40:42;;;;;;;17.23;11.18;;;4.40;99.90;;;;;;5377003;26;20019;-76
2024/04/12 01:43:18;;;;;;;14.75;10.50;;;4.40;99.90;;;;;;5369176;26;20004;-76
2024/04/12 01:45:44;;;;;;;12.55;9.90;;;4.40;99.90;;;;;;5377190;26;20016;-77
2024/04/12 01:48:10;;;;;;;12.60;9.68;;;4.40;99.90;;;;;;5379825;26;20004;-76
2024/04/12 01:50:40;;;;;;;13.00;9.60;;;4.50;99.90;;;;;;5377698;26;20017;-76
2024/04/12 01:53:09;;;;;;;16.65;9.80;;;4.50;99.90;;;;;;5380404;26;20028;-77
2024/04/12 01:55:39;;;;;;;14.10;10.00;;;4.50;99.90;;;;;;5377294;26;20355;-76
2024/04/12 01:58:05;;;;;;;13.30;9.23;;;4.50;99.90;;;;;;5361947;26;20009;-76
2024/04/12 02:00:32;;;;;;;15.18;10.27;;;4.50;99.90;;;;;;5427345;26;20016;-76
2024/04/12 02:03:02;;;;;;;13.23;9.75;;;4.50;99.90;;;;;;5378361;26;20019;-76
2024/04/12 02:05:34;;;;;;;14.32;10.32;;;4.50;99.90;;;;;;5379335;26;20012;-76
2024/04/12 02:08:07;;;;;;;12.82;10.70;;;4.50;99.90;;;;;;5370344;26;20012;-76
2024/04/12 02:10:40;;;;;;;;;;;4.50;99.90;;;;;;5345064;26;20008;-76
2024/04/12 02:13:10;;;;;;;15.48;10.63;;;4.50;99.90;;;;;;5376845;26;19941;-76
2024/04/12 02:15:36;;;;;;;17.70;11.63;;;4.50;99.90;;;;;;5380680;26;20008;-76
2024/04/12 02:18:02;;;;;;;18.23;11.82;;;4.40;99.90;;;;;;5378162;26;20000;-77
2024/04/12 02:20:38;;;;;;;17.95;12.23;;;4.40;99.90;;;;;;5366532;26;20371;-77
2024/04/12 02:23:05;;;;;;;18.10;12.40;;;4.40;99.90;;;;;;5349044;26;19997;-76
2024/04/12 02:25:38;;;;;;;16.90;11.77;;;4.40;99.90;;;;;;5345055;26;20330;-76
2024/04/12 02:28:11;;;;;;;21.48;12.45;;;4.40;99.90;;;;;;5378471;26;20023;-77
2024/04/12 02:30:42;;;;;;;16.50;9.93;;;4.40;99.90;;;;;;5379882;26;20008;-76
2024/04/12 02:33:12;;;;;;;17.48;10.30;;;4.40;99.90;;;;;;5379599;26;20442;-76
2024/04/12 02:35:41;;;;;;;17.88;9.77;;;4.30;99.90;;;;;;5379905;26;20438;-76
2024/04/12 02:38:20;;;;;;;18.50;10.75;;;4.30;99.90;;;;;;5379589;26;20051;-76
2024/04/12 02:40:48;;;;;;;15.07;10.05;;;4.30;99.90;;;;;;5376994;26;20011;-76
2024/04/12 02:43:15;;;;;;;19.80;11.00;;;4.30;99.90;;;;;;5377971;26;20008;-76
2024/04/12 02:46:10;;;;;;;14.68;10.25;;;4.30;99.90;;;;;;5377959;26;20099;-76
2024/04/12 02:48:40;;;;;;;16.95;10.27;;;4.30;99.90;;;;;;5379479;26;20052;-76
2024/04/12 02:51:06;;;;;;;14.65;9.88;;;4.30;99.90;;;;;;5379853;26;20015;-76
2024/04/12 02:53:36;;;;;;;12.82;9.65;;;4.30;99.90;;;;;;5379408;26;20012;-76
2024/04/12 02:56:09;;;;;;;13.52;11.07;;;4.30;99.90;;;;;;5378985;26;20481;-76
2024/04/12 02:58:39;;;;;;;15.02;11.30;;;4.30;99.90;;;;;;5379603;26;20008;-76
2024/04/12 03:01:12;;;;;;;17.75;10.18;;;4.40;99.90;;;;;;5377447;26;20008;-76
2024/04/12 03:03:45;;;;;;;14.68;10.60;;;4.40;99.90;;;;;;5377217;26;20019;-77
2024/04/12 03:06:11;;;;;;;14.95;9.80;;;4.40;99.90;;;;;;5379379;26;20008;-76
2024/04/12 03:08:49;;;;;;;14.13;10.52;;;4.40;99.90;;;;;;5375846;26;20015;-76
2024/04/12 03:11:23;;;;;;;15.57;10.18;;;4.40;99.90;;;;;;5378164;26;20022;-76
2024/04/12 03:13:52;;;;;;;15.18;9.90;;;4.30;99.90;;;;;;5377361;26;20001;-78
2024/04/12 03:16:21;;;;;;;15.25;10.27;;;4.30;99.90;;;;;;5354262;26;20100;-76
2024/04/12 03:18:52;;;;;;;16.42;9.77;;;4.40;99.90;;;;;;5374318;26;20088;-77
2024/04/12 03:21:22;;;;;;;13.48;9.57;;;4.40;99.90;;;;;;5380904;26;20012;-77
2024/04/12 03:23:48;;;;;;;14.05;9.30;;;4.30;99.90;;;;;;5410679;26;20008;-77
2024/04/12 03:26:15;;;;;;;20.60;10.35;;;4.30;99.90;;;;;;5380616;26;20101;-77
2024/04/12 03:28:41;;;;;;;15.82;10.20;;;4.30;99.90;;;;;;5381437;26;20069;-76
2024/04/12 03:31:08;;;;;;;16.27;9.98;;;4.20;99.90;;;;;;5374397;26;20005;-77
2024/04/12 03:33:44;;;;;;;14.10;9.40;;;4.30;99.90;;;;;;5371612;26;20019;-76
2024/04/12 03:41:43;;;;;;;17.45;11.13;;;4.20;99.90;;;;;;5370348;26;20055;-76
2024/04/12 03:44:10;;;;;;;13.32;10.82;;;4.20;99.90;;;;;;5367663;26;20008;-77
2024/04/12 03:46:40;;;;;;;15.70;10.02;;;4.20;99.90;;;;;;5353466;26;20016;-76
2024/04/12 03:49:09;;;;;;;21.05;11.80;;;4.20;99.90;;;;;;5380902;26;20767;-76
2024/04/12 03:51:42;;;;;;;20.42;11.05;;;4.00;99.90;;;;;;5374698;26;20013;-76
2024/04/12 03:54:11;;;;;;;16.65;10.80;;;4.00;99.90;;;;;;5374380;26;20001;-78
2024/04/12 03:56:38;;;;;;;22.80;12.68;;;4.00;99.90;;;;;;5382250;26;20416;-76
2024/04/12 03:59:03;;;;;;;17.00;10.50;;;3.90;99.90;;;;;;5382162;26;20046;-77
2024/04/12 04:01:31;;;;;;;18.15;11.25;;;3.90;99.90;;;;;;5382446;26;20008;-77
2024/04/12 04:04:10;;;;;;;19.42;11.30;;;3.90;99.90;;;;;;5380594;26;20330;-77
2024/04/12 04:06:38;;;;;;;18.30;9.68;;;3.80;99.90;;;;;;5359902;26;20013;-77
2024/04/12 04:09:05;;;;;;;13.70;8.45;;;3.80;99.90;;;;;;5379767;26;20004;-77
2024/04/12 04:11:42;;;;;;;16.35;9.52;;;3.80;99.90;;;;;;5382229;26;20069;-77
2024/04/12 04:14:13;;;;;;;17.23;10.82;;;3.70;99.90;;;;;;5380193;26;20073;-77
2024/04/12 04:16:39;;;;;;;15.07;10.10;;;3.70;99.90;;;;;;5382475;26;19996;-76
2024/04/12 04:19:10;;;;;;;17.73;11.25;;;3.80;99.90;;;;;;5357439;26;20040;-77
2024/04/12 04:21:38;;;;;;;17.55;9.48;;;3.80;99.90;;;;;;5361589;26;20009;-77
2024/04/12 04:24:09;;;;;;;21.45;10.70;;;3.90;99.90;;;;;;5379781;26;20004;-77
2024/04/12 04:26:36;;;;;;;17.85;9.93;;;3.90;99.90;;;;;;5376971;26;20400;-77
2024/04/12 04:29:09;;;;;;;17.35;9.88;;;3.90;99.90;;;;;;5375741;26;19996;-77
2024/04/12 04:31:46;;;;;;;18.75;11.00;;;3.90;99.90;;;;;;5373592;26;20008;-76
2024/04/12 04:34:13;;;;;;;17.27;10.48;;;4.00;99.90;;;;;;5382094;26;20016;-76
2024/04/12 04:36:41;;;;;;;17.45;10.63;;;4.00;99.90;;;;;;5381571;26;20463;-77
2024/04/12 04:39:07;;;;;;;15.13;11.45;;;4.10;99.90;;;;;;5379897;26;20442;-77
2024/04/12 04:41:35;;;;;;;19.35;10.77;;;4.10;99.90;;;;;;5379003;26;20019;-77
2024/04/12 04:44:01;;;;;;;23.38;15.90;;;4.20;99.90;;;;;;5379508;26;20028;-77
2024/04/12 04:46:27;;;;;;;33.40;20.85;;;4.30;99.90;;;;;;5379440;26;20058;-77
2024/04/12 04:48:53;;;;;;;50.17;30.48;;;4.30;99.90;;;;;;5379324;26;20008;-77
2024/04/12 04:51:20;;;;;;;77.10;33.95;;;4.40;99.90;;;;;;5371745;26;20094;-77
2024/04/12 04:53:46;;;;;;;40.88;24.50;;;4.50;99.90;;;;;;5379240;26;20004;-77
2024/04/12 04:56:12;;;;;;;42.88;25.92;;;4.60;99.90;;;;;;5373720;26;21296;-78
2024/04/12 04:58:41;;;;;;;32.20;20.35;;;4.80;99.90;;;;;;5372914;26;20000;-77
2024/04/12 05:01:13;;;;;;;23.35;15.82;;;4.90;99.90;;;;;;5379191;26;20019;-76
2024/04/12 05:03:39;;;;;;;18.33;11.82;;;5.00;99.90;;;;;;5381022;26;20088;-77
2024/04/12 05:06:08;;;;;;;18.52;10.25;;;5.10;99.90;;;;;;5381028;26;20016;-79
2024/04/12 05:08:35;;;;;;;18.48;13.30;;;5.10;99.90;;;;;;5380824;26;20023;-77
2024/04/12 05:11:05;;;;;;;21.08;12.57;;;5.30;99.90;;;;;;5378882;26;20001;-78
2024/04/12 05:13:37;;;;;;;20.95;13.25;;;5.40;99.90;;;;;;5378844;26;20020;-77
2024/04/12 05:16:10;;;;;;;22.83;12.90;;;5.40;99.90;;;;;;5380160;26;20004;-76
2024/04/12 05:18:39;;;;;;;19.45;12.57;;;5.60;99.90;;;;;;5379325;26;20085;-77
2024/04/12 05:21:04;;;;;;;14.68;11.57;;;5.70;99.90;;;;;;5380669;26;20040;-76
2024/04/12 05:23:30;;;;;;;19.77;12.35;;;5.90;99.90;;;;;;5367142;26;20446;-77
2024/04/12 05:25:56;;;;;;;21.05;13.23;;;6.10;99.90;;;;;;5376727;26;20261;-76
2024/04/12 05:28:22;;;;;;;18.40;13.05;;;6.20;99.90;;;;;;5376906;26;20000;-76
2024/04/12 05:30:49;;;;;;;17.38;12.85;;;6.40;99.90;;;;;;5377183;26;20032;-78
2024/04/12 05:33:16;;;;;;;22.95;14.95;;;6.50;99.90;;;;;;5374764;26;20719;-78
2024/04/12 05:35:43;;;;;;;21.83;14.65;;;6.60;99.90;;;;;;5374798;26;20004;-79
2024/04/12 05:38:09;;;;;;;30.63;14.45;;;6.80;99.90;;;;;;5376065;26;20008;-78
2024/04/12 05:40:41;;;;;;;25.20;16.08;;;6.80;99.90;;;;;;5347595;26;20012;-79
2024/04/12 05:43:14;;;;;;;33.65;21.35;;;7.00;99.90;;;;;;5378948;26;20044;-79
2024/04/12 05:45:47;;;;;;;35.80;22.10;;;7.20;99.90;;;;;;5378741;26;20012;-79
2024/04/12 05:48:13;;;;;;;41.85;23.92;;;7.30;99.90;;;;;;5378614;26;20019;-79
2024/04/12 05:50:40;;;;;;;42.38;24.63;;;7.40;99.90;;;;;;5378681;26;20008;-79
2024/04/12 05:53:10;;;;;;;41.60;25.65;;;7.50;99.90;;;;;;5380299;26;20000;-79
2024/04/12 05:55:44;;;;;;;44.65;25.20;;;7.60;99.90;;;;;;5363170;26;20071;-79
2024/04/12 05:58:14;;;;;;;39.72;25.65;;;7.80;99.90;;;;;;5372474;26;20471;-79
2024/04/12 06:00:42;;;;;;;47.47;27.45;;;7.90;99.90;;;;;;5365528;26;20020;-79
2024/04/12 06:03:14;;;;;;;47.47;26.02;;;8.10;99.90;;;;;;5376282;26;20019;-79
2024/04/12 06:06:00;;;;;;;43.25;27.55;;;8.20;99.90;;;;;;5375747;26;20023;-79
2024/04/12 06:08:26;;;;;;;49.70;27.20;;;8.40;99.90;;;;;;5373074;26;20024;-78
2024/04/12 06:10:55;;;;;;;54.95;29.25;;;8.40;99.90;;;;;;5370614;26;20000;-79
2024/04/12 06:13:24;;;;;;;52.97;30.08;;;8.60;99.90;;;;;;5346355;26;20338;-79
2024/04/12 06:15:49;;;;;;;48.85;28.40;;;8.70;99.90;;;;;;5353624;26;20001;-80
2024/04/12 06:18:16;;;;;;;51.78;30.58;;;8.80;99.90;;;;;;5362518;26;20004;-80
2024/04/12 06:20:43;;;;;;;46.65;28.23;;;8.90;99.90;;;;;;5376811;26;20019;-80
2024/04/12 06:23:10;;;;;;;48.53;29.45;;;9.00;99.90;;;;;;5376435;26;20461;-79
2024/04/12 06:25:45;;;;;;;46.00;29.13;;;9.10;99.90;;;;;;5375428;26;20533;-80
2024/04/12 06:28:12;;;;;;;48.13;29.80;;;9.20;99.90;;;;;;5376453;26;20020;-80
2024/04/12 06:30:40;;;;;;;43.88;28.33;;;9.30;99.90;;;;;;5376093;26;20078;-80
2024/04/12 06:33:06;;;;;;;48.75;30.50;;;9.40;99.90;;;;;;5373168;26;20032;-80
2024/04/12 06:35:32;;;;;;;44.65;30.10;;;9.50;99.90;;;;;;5374865;26;20012;-80
2024/04/12 06:37:58;;;;;;;44.75;28.52;;;9.60;99.90;;;;;;5348389;26;20436;-80
2024/04/12 06:40:28;;;;;;;50.85;28.42;;;9.70;99.90;;;;;;5376787;26;20004;-80
2024/04/12 06:43:05;;;;;;;41.78;27.65;;;9.70;99.90;;;;;;5373245;26;20020;-80
2024/04/12 06:45:41;;;;;;;39.95;26.23;;;9.80;99.90;;;;;;5362697;26;20015;-81
2024/04/12 06:48:10;;;;;;;34.55;25.35;;;10.00;99.90;;;;;;5379545;26;20015;-80
2024/04/12 06:50:36;;;;;;;44.67;28.73;;;10.20;99.90;;;;;;5379859;26;20017;-80
2024/04/12 06:53:08;;;;;;;40.90;28.60;;;10.30;99.90;;;;;;5381620;26;20445;-81
2024/04/12 06:55:45;;;;;;;42.15;26.83;;;10.40;99.90;;;;;;5381574;26;20443;-80
2024/04/12 06:58:17;;;;;;;42.25;27.40;;;10.60;99.90;;;;;;5381628;26;20077;-80
2024/04/12 07:00:57;;;;;;;37.53;25.48;;;10.90;99.90;;;;;;5356977;26;20000;-80
2024/04/12 07:03:23;;;;;;;37.88;25.08;;;11.00;99.90;;;;;;5371308;26;20020;-80
2024/04/12 07:05:56;;;;;;;36.67;23.58;;;11.20;99.90;;;;;;5382714;26;20016;-80
2024/04/12 07:08:26;;;;;;;38.35;24.98;;;11.50;99.90;;;;;;5383327;26;20311;-80
2024/04/12 07:10:52;;;;;;;32.42;22.70;;;11.70;99.90;;;;;;5381154;26;20004;-81
2024/04/12 07:13:27;;;;;;;30.95;20.55;;;12.10;99.90;;;;;;5383213;26;20046;-80
2024/04/12 07:15:56;;;;;;;25.38;18.77;;;12.30;99.90;;;;;;5382912;26;20343;-80
2024/04/12 07:18:22;;;;;;;24.10;17.38;;;12.60;93.20;;;;;;5382525;26;20008;-80
2024/04/12 07:20:49;;;;;;;26.67;17.73;;;12.90;88.60;;;;;;5381203;26;20031;-80
2024/04/12 07:23:15;;;;;;;26.60;18.02;;;13.20;86.30;;;;;;5382346;26;20068;-81
2024/04/12 07:25:47;;;;;;;23.20;17.45;;;13.40;84.80;;;;;;5383070;26;20004;-81
2024/04/12 07:28:14;;;;;;;26.45;18.38;;;13.40;81.00;;;;;;5378643;26;20409;-80
2024/04/12 07:30:44;;;;;;;23.73;17.05;;;13.40;79.40;;;;;;5381988;26;20019;-81
2024/04/12 07:33:12;;;;;;;25.55;17.33;;;13.40;79.10;;;;;;5382357;26;20453;-81
2024/04/12 07:35:48;;;;;;;24.77;16.73;;;13.50;79.60;;;;;;5382838;26;20054;-81
2024/04/12 07:38:15;;;;;;;22.67;16.55;;;13.50;78.90;;;;;;5376323;26;20005;-81
2024/04/12 07:40:43;;;;;;;26.27;16.63;;;13.70;80.10;;;;;;5348358;26;20001;-80
2024/04/12 07:43:10;;;;;;;28.05;17.88;;;13.80;79.90;;;;;;5381218;26;20004;-81
2024/04/12 07:45:37;;;;;;;31.10;17.00;;;14.10;80.30;;;;;;5380969;26;20015;-81
2024/04/12 07:50:46;;;;;;;24.90;16.27;;;14.00;73.60;;;;;;5381240;26;20011;-81
2024/04/12 07:53:21;;;;;;;26.08;16.30;;;14.10;74.40;;;;;;5377619;26;20012;-81
2024/04/12 07:56:00;;;;;;;24.10;14.52;;;14.30;74.30;;;;;;5352483;26;19993;-81
2024/04/12 07:58:34;;;;;;;23.45;15.18;;;14.30;73.80;;;;;;5347830;26;20004;-81
2024/04/12 08:01:09;;;;;;;22.55;13.07;;;14.40;72.60;;;;;;5345661;26;20020;-80
2024/04/12 08:03:39;;;;;;;21.23;15.57;;;14.60;72.00;;;;;;5369650;26;20004;-81
2024/04/12 08:06:36;;;;;;;21.63;14.80;;;14.70;72.30;;;;;;5380261;26;20000;-81
2024/04/12 08:09:06;;;;;;;17.35;11.95;;;15.00;72.00;;;;;;5381980;26;20391;-80
2024/04/12 08:11:34;;;;;;;19.13;10.70;;;15.20;69.70;;;;;;5380204;26;20445;-81
2024/04/12 08:14:07;;;;;;;17.27;11.02;;;15.40;67.00;;;;;;5381747;26;20011;-81
2024/04/12 08:16:35;;;;;;;19.40;12.27;;;15.50;65.00;;;;;;5380863;26;20347;-80
2024/04/12 08:19:11;;;;;;;21.98;11.73;;;15.70;67.00;;;;;;5350857;26;19997;-81
2024/04/12 08:21:37;;;;;;;15.82;9.90;;;15.60;65.60;;;;;;5346499;26;20040;-81
2024/04/12 08:24:09;;;;;;;15.77;11.25;;;15.80;65.90;;;;;;5365615;26;20015;-81
2024/04/12 08:26:37;;;;;;;19.43;10.70;;;15.90;65.40;;;;;;5381710;26;20020;-80
2024/04/12 08:29:06;;;;;;;17.23;9.60;;;16.00;64.80;;;;;;5374828;26;20001;-81
2024/04/12 08:31:35;;;;;;;16.52;8.90;;;16.10;63.40;;;;;;5375674;26;20015;-80
2024/04/12 08:34:03;;;;;;;14.38;7.40;;;16.10;61.80;;;;;;5379546;26;20071;-81
2024/04/12 08:36:32;;;;;;;4.63;3.17;;;16.10;59.80;;;;;;5372110;26;20027;-81
2024/04/12 08:39:12;;;;;;;8.68;4.80;;;16.00;54.50;;;;;;5379387;26;20019;-80
2024/04/12 08:41:38;;;;;;;7.70;4.07;;;16.20;53.90;;;;;;5365578;26;20015;-80
2024/04/12 08:44:09;;;;;;;10.95;4.93;;;16.30;54.50;;;;;;5378945;26;20007;-81
2024/04/12 08:46:37;;;;;;;6.53;4.70;;;16.50;54.10;;;;;;5380623;26;20011;-81
2024/04/12 08:49:03;;;;;;;10.90;6.85;;;16.60;54.40;;;;;;5351396;26;20005;-80
2024/04/12 08:51:33;;;;;;;13.60;6.10;;;16.60;54.30;;;;;;5428254;26;20047;-80
2024/04/12 08:54:04;;;;;;;11.02;5.57;;;16.60;53.50;;;;;;5374526;26;20041;-80
2024/04/12 08:56:30;;;;;;;8.10;4.87;;;16.70;54.30;;;;;;5381808;26;20012;-80
2024/04/12 08:58:59;;;;;;;12.57;4.55;;;16.80;54.50;;;;;;5381263;26;20015;-81
2024/04/12 09:01:26;;;;;;;9.88;4.00;;;16.90;53.90;;;;;;5380056;26;20004;-80
2024/04/12 09:04:14;;;;;;;10.35;5.22;;;17.00;53.40;;;;;;5380799;26;20004;-80
2024/04/12 09:06:40;;;;;;;8.75;6.07;;;17.10;53.60;;;;;;5361494;26;20005;-80
2024/04/12 09:09:13;;;;;;;10.18;6.32;;;17.10;53.20;;;;;;5364836;26;20055;-80
2024/04/12 09:11:39;;;;;;;11.38;6.18;;;17.20;54.00;;;;;;5381077;26;20395;-81
2024/04/12 09:14:19;;;;;;;12.68;7.40;;;17.40;55.20;;;;;;5381061;26;20333;-81
2024/04/12 09:16:48;;;;;;;19.58;10.07;;;17.60;54.70;;;;;;5379054;26;20339;-80
2024/04/12 09:19:15;;;;;;;17.75;10.80;;;17.60;55.10;;;;;;5381498;26;20473;-80
2024/04/12 09:21:47;;;;;;;17.45;9.55;;;17.70;54.70;;;;;;5379031;26;20023;-81
2024/04/12 09:24:21;;;;;;;;;;;17.60;55.40;;;;;;5366585;26;20021;-80
2024/04/12 09:26:58;;;;;;;19.50;10.98;;;17.60;55.90;;;;;;5360424;26;19925;-80
2024/04/12 09:29:27;;;;;;;18.13;10.38;;;17.70;57.00;;;;;;5380575;26;20013;-80
2024/04/12 09:34:55;;;;;;;22.15;9.65;;;18.00;57.60;;;;;;5381105;26;20023;-79
2024/04/12 09:37:39;;;;;;;22.52;10.30;;;18.00;55.80;;;;;;5380854;26;20012;-79
2024/04/12 09:45:27;;;;;;;7.45;3.60;;;18.30;53.30;;;;;;5380916;26;20027;-79
2024/04/12 10:38:14;;;;;;;10.40;4.40;;;18.70;54.10;;;;;;5395289;26;20461;-76
2024/04/12 10:40:40;;;;;;;7.00;4.55;;;18.70;54.40;;;;;;5350888;26;20000;-77
2024/04/12 10:43:13;;;;;;;8.20;5.10;;;18.80;54.10;;;;;;5396084;26;20004;-77
2024/04/12 10:45:48;;;;;;;9.35;5.07;;;18.80;53.70;;;;;;5354837;26;20001;-77
2024/04/12 10:48:18;;;;;;;8.88;4.97;;;18.80;54.40;;;;;;5364886;26;20345;-76
2024/04/12 10:50:48;;;;;;;7.93;4.68;;;18.80;54.50;;;;;;5382026;26;20019;-77
2024/04/12 10:53:15;;;;;;;8.80;4.30;;;18.80;54.20;;;;;;5378553;26;20023;-77
2024/04/12 10:55:44;;;;;;;7.00;3.85;;;18.60;53.60;;;;;;5380951;26;20075;-77
2024/04/12 10:58:14;;;;;;;7.25;4.25;;;18.70;54.90;;;;;;5381000;26;20005;-78
2024/04/12 11:00:47;;;;;;;5.50;3.78;;;18.90;54.70;;;;;;5377391;26;20024;-77
2024/04/12 11:03:23;;;;;;;7.80;4.43;;;19.00;53.30;;;;;;5377805;26;20084;-76
2024/04/12 11:05:51;;;;;;;9.10;5.18;;;19.00;53.80;;;;;;5366934;26;20051;-77
2024/04/12 11:08:19;;;;;;;10.18;5.07;;;19.20;54.20;;;;;;5375194;26;20026;-77
2024/04/12 11:10:55;;;;;;;6.88;4.88;;;19.40;54.10;;;;;;5374561;26;20015;-77
2024/04/12 11:13:35;;;;;;;9.30;5.03;;;19.50;53.70;;;;;;5332175;26;20031;-77
2024/04/12 11:32:55;;;;;;;9.30;4.55;;;19.60;52.20;;;;;;5357479;26;20085;-78
2024/04/12 11:35:31;;;;;;;8.95;4.45;;;19.70;51.80;;;;;;5378443;26;20019;-79
2024/04/12 11:37:57;;;;;;;6.78;3.92;;;19.70;52.10;;;;;;5371007;26;20613;-79
2024/04/12 11:40:25;;;;;;;6.60;3.50;;;19.60;52.30;;;;;;5370024;26;20001;-78
2024/04/12 11:42:56;;;;;;;5.10;3.15;;;19.70;53.00;;;;;;5374669;26;20008;-79
2024/04/12 11:45:25;;;;;;;3.75;2.97;;;19.80;52.40;;;;;;5372178;26;20005;-78
2024/04/12 11:47:50;;;;;;;6.35;3.17;;;19.80;52.40;;;;;;5376106;26;20451;-79
2024/04/12 11:50:17;;;;;;;5.75;2.97;;;19.80;52.40;;;;;;5374404;26;20004;-79
2024/04/12 11:52:43;;;;;;;5.65;2.80;;;19.80;51.60;;;;;;5361280;26;20004;-79
2024/04/12 11:55:12;;;;;;;3.83;2.60;;;19.70;51.80;;;;;;5372062;26;20001;-79
2024/04/12 11:57:41;;;;;;;6.47;2.28;;;19.70;51.90;;;;;;5365991;26;20034;-79
2024/04/12 12:00:10;;;;;;;4.43;2.60;;;19.90;53.10;;;;;;5378815;26;20011;-79
2024/04/12 12:02:42;;;;;;;5.03;2.38;;;20.00;51.80;;;;;;5377427;26;20046;-79
2024/04/12 12:05:09;;;;;;;4.50;2.85;;;20.30;52.50;;;;;;5371282;26;20024;-79
2024/04/12 12:07:35;;;;;;;5.85;2.28;;;20.30;52.10;;;;;;5379222;26;20000;-80
2024/04/12 12:10:08;;;;;;;3.45;2.45;;;20.30;51.50;;;;;;5376690;26;20004;-79
2024/04/12 12:12:37;;;;;;;6.88;2.72;;;20.50;52.50;;;;;;5360282;26;20021;-79
2024/04/12 12:15:06;;;;;;;8.30;2.95;;;20.40;50.20;;;;;;5343408;26;20108;-79
2024/04/12 12:17:32;;;;;;;6.20;2.67;;;20.50;50.90;;;;;;5356527;26;20008;-80
2024/04/12 12:19:58;;;;;;;4.78;2.13;;;20.60;50.80;;;;;;5370645;26;19997;-79
2024/04/12 12:22:24;;;;;;;4.78;2.10;;;20.60;49.70;;;;;;5382164;26;20322;-79
2024/04/12 12:24:50;;;;;;;7.07;2.25;;;20.60;51.30;;;;;;5381868;26;20028;-79
2024/04/12 12:27:19;;;;;;;5.40;2.30;;;20.60;50.50;;;;;;5379931;26;20018;-79
2024/04/12 12:29:48;;;;;;;9.55;2.58;;;20.70;49.80;;;;;;5376186;26;20445;-80
2024/04/12 12:32:14;;;;;;;10.98;2.50;;;20.70;50.90;;;;;;5381047;26;20430;-80
2024/04/12 12:34:43;;;;;;;5.72;2.10;;;20.50;49.80;;;;;;5364615;26;20111;-79
2024/04/12 12:37:09;;;;;;;4.30;2.28;;;20.70;50.60;;;;;;5367213;26;20012;-80
2024/04/12 12:39:37;;;;;;;4.55;2.10;;;20.70;49.90;;;;;;5370490;26;20004;-79
2024/04/12 12:42:12;;;;;;;4.78;2.50;;;20.80;50.40;;;;;;5381974;26;20396;-79
2024/04/12 12:44:39;;;;;;;7.10;3.75;;;20.70;49.80;;;;;;5379105;26;20012;-79
2024/04/12 12:47:05;;;;;;;3.67;2.22;;;20.80;50.70;;;;;;5375125;26;20016;-80
2024/04/12 12:49:46;;;;;;;5.57;2.17;;;20.70;49.50;;;;;;5364352;26;20007;-79
2024/04/12 12:52:13;;;;;;;2.92;2.33;;;20.80;50.40;;;;;;5377562;26;20008;-80
2024/04/12 12:54:42;;;;;;;3.40;2.70;;;20.70;50.10;;;;;;5408697;26;20351;-79
2024/04/12 12:57:14;;;;;;;4.00;3.17;;;20.70;49.40;;;;;;5379546;26;20353;-80
2024/04/12 12:59:43;;;;;;;14.75;3.90;;;20.60;49.20;;;;;;5368457;26;20012;-79
2024/04/12 13:02:14;;;;;;;6.78;2.15;;;20.80;50.50;;;;;;5343741;26;20378;-79
2024/04/12 13:04:42;;;;;;;4.38;2.67;;;20.90;51.60;;;;;;5373577;26;19996;-79
2024/04/12 13:07:08;;;;;;;4.28;2.78;;;21.10;51.10;;;;;;5380583;26;20007;-78
2024/04/12 13:09:35;;;;;;;6.22;2.78;;;21.10;50.50;;;;;;5377516;26;20429;-79
2024/04/12 13:12:09;;;;;;;5.63;3.05;;;21.10;50.90;;;;;;5377455;26;20004;-80
2024/04/12 13:14:39;;;;;;;5.72;2.40;;;21.00;49.70;;;;;;5375996;26;20426;-80
2024/04/12 13:17:12;;;;;;;4.70;3.13;;;20.60;50.00;;;;;;5375923;26;20000;-80
2024/04/12 13:19:41;;;;;;;4.30;2.90;;;20.30;50.30;;;;;;5381592;26;20004;-81
2024/04/12 13:22:14;;;;;;;7.75;2.80;;;20.20;51.00;;;;;;5381141;26;20087;-80
2024/04/12 13:24:40;;;;;;;6.25;2.42;;;20.20;52.00;;;;;;5379046;26;20329;-79
2024/04/12 13:27:07;;;;;;;4.57;2.95;;;20.10;52.60;;;;;;5378761;26;20015;-79
2024/04/12 13:29:33;;;;;;;6.88;2.38;;;20.10;52.80;;;;;;5377076;26;20031;-78
2024/04/12 13:32:00;;;;;;;4.55;2.40;;;20.20;54.10;;;;;;5379232;26;20099;-78
2024/04/12 13:34:26;;;;;;;6.60;2.40;;;20.20;53.60;;;;;;5381675;26;20024;-78
2024/04/12 13:36:53;;;;;;;5.15;2.97;;;20.30;54.00;;;;;;5380612;26;20004;-79
2024/04/12 13:39:24;;;;;;;3.58;2.83;;;20.30;53.70;;;;;;5362624;26;20016;-79
2024/04/12 13:41:54;;;;;;;6.40;3.10;;;20.20;52.60;;;;;;5358124;26;20453;-79
2024/04/12 13:52:37;;;;;;;6.85;3.33;;;20.80;53.20;;;;;;5381606;26;20357;-80
2024/04/12 13:55:03;;;;;;;5.85;2.55;;;20.60;52.60;;;;;;5377093;26;20015;-80
2024/04/12 13:57:30;;;;;;;7.22;2.67;;;20.50;52.30;;;;;;5373318;26;20633;-79
2024/04/12 13:59:59;;;;;;;5.78;3.15;;;20.60;52.60;;;;;;5376482;26;20000;-80
2024/04/12 14:02:30;;;;;;;4.30;3.20;;;20.60;52.40;;;;;;5372879;26;20000;-79
2024/04/12 14:04:55;;;;;;;5.70;3.83;;;20.70;52.60;;;;;;5371641;26;20382;-79
2024/04/12 14:07:24;;;;;;;6.35;3.33;;;20.70;52.80;;;;;;5375724;26;20008;-80
2024/04/12 14:09:49;;;;;;;9.80;2.78;;;20.70;53.30;;;;;;5380107;26;20000;-80
2024/04/12 14:12:15;;;;;;;5.22;2.97;;;20.80;53.10;;;;;;5379066;26;20004;-79
2024/04/12 14:14:40;;;;;;;4.97;2.63;;;20.80;53.60;;;;;;5380600;26;20016;-79
2024/04/12 14:17:12;;;;;;;3.85;2.20;;;20.90;53.10;;;;;;5380031;26;20012;-79
2024/04/12 14:19:37;;;;;;;2.70;2.28;;;20.80;52.40;;;;;;5372189;26;20465;-79
2024/04/12 14:22:03;;;;;;;3.65;2.50;;;20.90;52.40;;;;;;5376398;26;20004;-79
2024/04/12 14:27:13;;;;;;;7.03;2.28;;;20.80;51.80;;;;;;5380234;26;20019;-79